createdAt,value
2018-03-20T04:00:14.151Z,21.05
2018-03-20T04:02:56.044Z,22.67
2018-03-20T04:05:25.150Z,27.87
2018-03-20T04:07:57.488Z,17.58
2018-03-20T04:10:25.843Z,20.30
2018-03-20T04:12:54.155Z,18.30
2018-03-20T04:15:23.257Z,25.98
2018-03-20T04:17:51.604Z,19.37
2018-03-20T04:20:19.928Z,24.00
2018-03-20T04:22:50.249Z,22.30
2018-03-20T04:25:19.332Z,21.00
2018-03-20T04:27:48.445Z,19.05
2018-03-20T04:30:17.523Z,22.10
2018-03-20T04:32:51.020Z,25.55
2018-03-20T04:35:19.344Z,20.10
2018-03-20T04:37:47.676Z,21.75
2018-03-20T04:40:15.984Z,19.67
2018-03-20T04:42:44.335Z,18.92
2018-03-20T04:45:12.643Z,23.50
2018-03-20T04:47:50.901Z,28.73
2018-03-20T04:50:19.220Z,18.20
2018-03-20T04:52:48.320Z,22.25
2018-03-20T04:55:16.636Z,16.33
2018-03-20T04:57:44.977Z,22.33
2018-03-20T05:00:24.243Z,23.12
2018-03-20T05:02:52.580Z,20.05
2018-03-20T05:05:21.668Z,24.02
2018-03-20T05:07:50.771Z,16.83
2018-03-20T05:10:20.860Z,22.30
2018-03-20T05:12:49.222Z,17.90
2018-03-20T05:15:17.536Z,35.75
2018-03-20T05:17:50.840Z,17.60
2018-03-20T05:20:29.095Z,23.95
2018-03-20T05:23:04.901Z,28.45
2018-03-20T05:25:33.972Z,23.40
2018-03-20T05:28:04.312Z,18.60
2018-03-20T05:30:32.620Z,21.42
2018-03-20T05:33:00.940Z,17.70
2018-03-20T05:35:29.280Z,21.17
2018-03-20T05:37:57.592Z,23.15
2018-03-20T05:40:25.928Z,21.27
2018-03-20T05:42:54.276Z,21.60
2018-03-20T05:45:22.588Z,22.10
2018-03-20T05:51:08.311Z,23.10
2018-03-20T05:53:36.620Z,18.05
2018-03-20T05:56:04.961Z,27.02
2018-03-20T05:58:33.286Z,22.23
2018-03-20T06:01:01.624Z,18.92
2018-03-20T06:03:29.957Z,19.08
2018-03-20T06:05:58.268Z,19.23
2018-03-20T06:08:26.618Z,30.12
2018-03-20T06:10:54.932Z,23.60
2018-03-20T06:13:24.056Z,26.20
2018-03-20T06:15:52.552Z,26.40
2018-03-20T06:18:20.888Z,41.37
2018-03-20T06:20:49.204Z,26.98
2018-03-20T06:23:17.563Z,20.30
2018-03-20T06:25:45.880Z,21.95
2018-03-20T06:28:14.229Z,18.25
2018-03-20T06:30:42.565Z,27.15
2018-03-20T06:33:11.754Z,21.87
2018-03-20T06:35:40.871Z,26.73
2018-03-20T06:38:09.216Z,17.12
2018-03-20T06:40:37.673Z,20.92
2018-03-20T06:43:06.016Z,21.75
2018-03-20T06:45:34.459Z,25.92
2018-03-20T06:48:03.575Z,24.52
2018-03-20T06:50:32.652Z,26.47
2018-03-20T06:53:01.756Z,19.23
2018-03-20T06:55:30.867Z,17.90
2018-03-20T06:57:59.190Z,22.07
2018-03-20T07:00:27.541Z,20.80
2018-03-20T07:02:55.856Z,28.03
2018-03-20T07:05:25.701Z,27.20
2018-03-20T07:07:54.789Z,24.07
2018-03-20T07:10:23.916Z,21.30
2018-03-20T07:12:52.266Z,23.20
2018-03-20T07:15:21.397Z,23.90
2018-03-20T07:17:49.712Z,21.03
2018-03-20T07:20:18.021Z,22.23
2018-03-20T07:25:46.829Z,31.50
2018-03-20T07:28:15.967Z,23.87
2018-03-20T07:30:45.036Z,33.97
2018-03-20T07:33:13.348Z,31.97
2018-03-20T07:35:41.677Z,32.80
2018-03-20T07:38:10.759Z,31.60
2018-03-20T07:40:39.114Z,23.67
2018-03-20T07:43:07.440Z,22.90
2018-03-20T07:45:35.756Z,33.60
2018-03-20T07:48:04.096Z,21.67
2018-03-20T07:50:32.424Z,23.77
2018-03-20T07:53:00.784Z,25.63
2018-03-20T07:55:29.097Z,21.37
2018-03-20T07:57:57.432Z,16.47
2018-03-20T08:00:25.753Z,25.13
2018-03-20T08:02:54.076Z,16.50
2018-03-20T08:05:22.376Z,14.03
2018-03-20T08:07:50.703Z,13.50
2018-03-20T08:10:19.802Z,19.40
2018-03-20T08:12:48.896Z,16.50
2018-03-20T08:15:17.972Z,21.07
2018-03-20T08:17:46.298Z,15.77
2018-03-20T08:20:14.609Z,18.40
2018-03-20T08:22:42.928Z,18.63
2018-03-20T08:25:12.001Z,23.33
2018-03-20T08:27:41.128Z,27.73
2018-03-20T08:30:09.436Z,21.70
2018-03-20T08:32:37.749Z,15.97
2018-03-20T08:35:06.081Z,15.50
2018-03-20T08:37:34.392Z,26.23
2018-03-20T08:40:02.721Z,15.87
2018-03-20T08:42:31.033Z,13.17
2018-03-20T08:44:59.363Z,16.13
2018-03-20T08:47:28.442Z,18.97
2018-03-20T08:49:56.799Z,16.60
2018-03-20T08:52:25.121Z,15.63
2018-03-20T08:54:54.219Z,14.80
2018-03-20T08:57:23.281Z,14.17
2018-03-20T08:59:51.608Z,18.57
2018-03-20T09:02:19.916Z,19.60
2018-03-20T09:04:48.237Z,17.30
2018-03-20T09:07:17.307Z,15.20
2018-03-20T09:09:45.630Z,16.70
2018-03-20T09:12:13.934Z,15.93
2018-03-20T09:14:42.261Z,17.60
2018-03-20T09:17:11.344Z,22.33
2018-03-20T09:19:39.652Z,13.80
2018-03-20T09:22:08.741Z,34.13
2018-03-20T09:24:37.817Z,23.87
2018-03-20T09:27:06.144Z,29.73
2018-03-20T09:29:34.462Z,23.97
2018-03-20T09:32:02.801Z,11.50
2018-03-20T09:34:31.109Z,11.80
2018-03-20T09:36:59.437Z,10.10
2018-03-20T09:39:27.740Z,16.67
2018-03-20T09:41:56.072Z,14.67
2018-03-20T09:44:25.160Z,9.13
2018-03-20T09:46:54.233Z,15.20
2018-03-20T09:49:22.617Z,12.13
2018-03-20T09:51:50.921Z,15.60
2018-03-20T09:54:20.019Z,10.63
2018-03-20T09:56:49.097Z,11.23
2018-03-20T09:59:17.425Z,21.80
2018-03-20T10:01:45.737Z,34.50
2018-03-20T10:04:14.088Z,39.80
2018-03-20T10:06:42.404Z,32.10
2018-03-20T10:09:10.732Z,12.73
2018-03-20T10:11:39.040Z,17.40
2018-03-20T10:14:07.501Z,11.77
2018-03-20T10:16:36.537Z,12.40
2018-03-20T10:19:05.637Z,12.50
2018-03-20T10:21:34.725Z,14.90
2018-03-20T10:24:03.049Z,12.17
2018-03-20T10:26:31.364Z,17.30
2018-03-20T10:28:59.697Z,12.87
2018-03-20T10:31:28.010Z,12.20
2018-03-20T10:33:56.335Z,13.80
2018-03-20T10:36:25.409Z,10.10
2018-03-20T10:38:53.757Z,10.40
2018-03-20T10:41:22.913Z,17.73
2018-03-20T10:43:52.166Z,13.80
2018-03-20T10:46:20.465Z,17.73
2018-03-20T10:48:48.804Z,23.40
2018-03-20T10:51:17.136Z,24.23
2018-03-20T10:53:46.214Z,12.87
2018-03-20T10:56:14.551Z,20.80
2018-03-20T10:58:42.856Z,14.73
2018-03-20T11:01:16.774Z,18.30
2018-03-20T11:03:45.089Z,16.93
2018-03-20T11:06:13.417Z,14.57
2018-03-20T11:08:41.729Z,17.90
2018-03-20T11:11:10.102Z,11.07
2018-03-20T11:13:39.173Z,16.90
2018-03-20T11:16:07.504Z,14.53
2018-03-20T11:18:35.841Z,11.60
2018-03-20T11:21:04.164Z,13.00
2018-03-20T11:23:32.476Z,16.37
2018-03-20T11:26:00.801Z,14.53
2018-03-20T11:28:29.873Z,14.20
2018-03-20T11:30:58.201Z,15.13
2018-03-20T11:33:26.508Z,12.50
2018-03-20T11:35:54.840Z,17.57
2018-03-20T11:38:23.149Z,18.10
2018-03-20T11:40:52.202Z,19.77
2018-03-20T11:43:20.508Z,19.50
2018-03-20T11:45:48.860Z,16.23
2018-03-20T11:48:17.177Z,15.50
2018-03-20T11:50:45.526Z,16.00
2018-03-20T11:53:13.828Z,13.83
2018-03-20T11:55:42.143Z,15.37
2018-03-20T11:58:10.468Z,11.50
2018-03-20T12:00:38.783Z,24.30
2018-03-20T12:03:07.125Z,14.93
2018-03-20T12:05:35.433Z,16.47
2018-03-20T12:08:15.570Z,14.87
2018-03-20T12:10:43.881Z,13.80
2018-03-20T12:13:12.213Z,11.00
2018-03-20T12:15:40.534Z,12.60
2018-03-20T12:18:08.866Z,27.67
2018-03-20T12:20:37.236Z,44.30
2018-03-20T12:23:05.570Z,41.30
2018-03-20T12:25:33.883Z,17.27
2018-03-20T12:28:02.212Z,28.93
2018-03-20T12:33:31.793Z,19.80
2018-03-20T12:36:00.108Z,16.97
2018-03-20T12:38:28.436Z,14.17
2018-03-20T12:40:57.510Z,15.43
2018-03-20T12:43:26.625Z,15.60
2018-03-20T12:45:55.718Z,19.33
2018-03-20T12:48:24.822Z,24.03
2018-03-20T12:50:53.888Z,21.67
2018-03-20T12:53:22.221Z,22.03
2018-03-20T12:55:50.534Z,18.37
2018-03-20T12:58:18.873Z,17.77
2018-03-20T13:00:47.191Z,17.37
2018-03-20T13:03:15.530Z,26.73
2018-03-20T13:05:43.837Z,17.00
2018-03-20T13:08:12.944Z,22.40
2018-03-20T13:10:41.258Z,23.73
2018-03-20T13:13:10.400Z,31.10
2018-03-20T13:15:38.736Z,28.57
2018-03-20T13:18:07.069Z,32.03
2018-03-20T13:20:35.387Z,27.70
2018-03-20T13:23:04.484Z,24.67
2018-03-20T13:25:33.550Z,21.70
2018-03-20T13:28:01.884Z,21.80
2018-03-20T13:30:30.259Z,22.40
2018-03-20T13:32:59.334Z,24.40
2018-03-20T13:35:27.649Z,20.70
2018-03-20T13:37:55.989Z,20.33
2018-03-20T13:40:24.298Z,24.00
2018-03-20T13:42:52.694Z,19.43
2018-03-20T13:45:21.009Z,23.80
2018-03-20T13:47:50.216Z,29.30
2018-03-20T13:50:19.292Z,30.60
2018-03-20T13:52:49.379Z,32.63
2018-03-20T13:55:15.955Z,22.00
2018-03-20T13:57:45.063Z,22.53
2018-03-20T14:00:14.136Z,19.20
2018-03-20T14:02:55.060Z,25.30
2018-03-20T14:05:23.370Z,26.73
2018-03-20T14:07:51.700Z,22.57
2018-03-20T14:10:20.022Z,46.40
2018-03-20T14:12:48.361Z,86.33
2018-03-20T14:15:16.674Z,25.87
2018-03-20T14:17:45.002Z,24.13
2018-03-20T14:20:13.317Z,20.07
2018-03-20T14:22:41.646Z,20.80
2018-03-20T14:25:10.723Z,27.57
2018-03-20T14:27:39.069Z,21.27
2018-03-20T14:30:08.292Z,34.30
2018-03-20T14:32:36.642Z,26.83
2018-03-20T14:35:04.949Z,24.63
2018-03-20T14:37:33.260Z,20.73
2018-03-20T14:40:01.591Z,19.70
2018-03-20T14:42:29.904Z,25.47
2018-03-20T14:44:59.006Z,21.57
2018-03-20T14:47:28.097Z,24.03
2018-03-20T14:49:57.188Z,26.10
2018-03-20T14:52:26.266Z,22.07
2018-03-20T14:54:54.635Z,19.80
2018-03-20T14:57:22.935Z,22.20
2018-03-20T14:59:52.021Z,20.70
2018-03-20T15:02:20.354Z,17.90
2018-03-20T15:04:48.665Z,23.13
2018-03-20T15:07:16.993Z,19.50
2018-03-20T15:09:45.310Z,15.70
2018-03-20T15:12:13.654Z,18.10
2018-03-20T15:14:41.965Z,18.87
2018-03-20T15:17:10.313Z,17.87
2018-03-20T15:19:38.708Z,17.00
2018-03-20T15:22:07.044Z,17.93
2018-03-20T15:24:36.112Z,22.37
2018-03-20T15:27:04.445Z,15.80
2018-03-20T15:29:32.757Z,19.27
2018-03-20T15:32:01.100Z,20.23
2018-03-20T15:34:29.402Z,26.50
2018-03-20T15:36:58.495Z,24.20
2018-03-20T15:39:26.816Z,30.73
2018-03-20T15:41:55.915Z,29.07
2018-03-20T15:44:24.985Z,25.70
2018-03-20T15:46:53.337Z,22.37
2018-03-20T15:49:21.640Z,16.13
2018-03-20T15:51:49.966Z,19.17
2018-03-20T15:54:18.300Z,18.27
2018-03-20T15:56:46.609Z,17.93
2018-03-20T15:59:15.701Z,35.97
2018-03-20T16:01:44.768Z,14.60
2018-03-20T16:04:13.094Z,13.03
2018-03-20T16:06:41.396Z,14.93
2018-03-20T16:09:09.718Z,14.10
2018-03-20T16:11:38.078Z,9.20
2018-03-20T16:14:06.498Z,11.90
2018-03-20T16:16:34.800Z,11.87
2018-03-20T16:19:03.135Z,11.07
2018-03-20T16:21:32.197Z,9.83
2018-03-20T16:24:00.543Z,11.80
2018-03-20T16:26:28.854Z,10.60
2018-03-20T16:28:57.188Z,17.17
2018-03-20T16:31:25.484Z,9.63
2018-03-20T16:33:53.830Z,10.10
2018-03-20T16:36:22.902Z,11.63
2018-03-20T16:38:51.201Z,13.20
2018-03-20T16:41:20.297Z,13.63
2018-03-20T16:43:49.363Z,13.80
2018-03-20T16:46:17.684Z,20.87
2018-03-20T16:48:45.996Z,18.00
2018-03-20T16:51:15.096Z,22.53
2018-03-20T16:53:43.404Z,28.10
2018-03-20T16:56:12.513Z,31.90
2018-03-20T16:58:41.581Z,28.67
2018-03-20T17:01:09.918Z,37.20
2018-03-20T17:03:38.224Z,16.70
2018-03-20T17:06:06.552Z,12.37
2018-03-20T17:08:34.863Z,10.93
2018-03-20T17:11:03.214Z,12.67
2018-03-20T17:13:31.525Z,8.67
2018-03-20T17:16:00.608Z,8.00
2018-03-20T17:18:29.075Z,7.17
2018-03-20T17:20:58.342Z,10.87
2018-03-20T17:23:27.426Z,13.07
2018-03-20T17:25:55.766Z,11.83
2018-03-20T17:28:24.072Z,17.60
2018-03-20T17:30:52.397Z,15.20
2018-03-20T17:33:20.713Z,17.90
2018-03-20T17:35:49.805Z,18.30
2018-03-20T17:38:18.114Z,27.97
2018-03-20T17:40:46.449Z,16.97
2018-03-20T17:45:49.309Z,9.70
2018-03-20T17:48:18.377Z,9.60
2018-03-20T17:50:46.683Z,6.10
2018-03-20T17:53:15.769Z,8.10
2018-03-20T17:55:44.825Z,4.93
2018-03-20T17:58:13.168Z,7.70
2018-03-20T18:00:41.465Z,7.53
2018-03-20T18:03:09.789Z,9.33
2018-03-20T18:05:38.099Z,5.00
2018-03-20T18:11:07.365Z,8.50
2018-03-20T18:13:35.672Z,12.63
2018-03-20T18:16:04.741Z,9.57
2018-03-20T18:18:33.088Z,13.33
2018-03-20T18:21:01.394Z,10.77
2018-03-20T18:23:29.721Z,10.23
2018-03-20T18:25:58.026Z,8.10
2018-03-20T18:28:26.341Z,4.27
2018-03-20T18:30:54.654Z,20.40
2018-03-20T18:33:22.986Z,14.73
2018-03-20T18:35:51.289Z,9.73
2018-03-20T18:38:20.377Z,5.97
2018-03-20T18:40:48.681Z,6.90
2018-03-20T18:43:17.042Z,9.03
2018-03-20T18:45:46.113Z,29.93
2018-03-20T18:48:14.470Z,9.13
2018-03-20T18:50:42.769Z,5.67
2018-03-20T18:53:11.095Z,4.70
2018-03-20T18:55:39.409Z,5.83
2018-03-20T18:58:07.813Z,4.33
2018-03-20T19:00:36.121Z,7.10
2018-03-20T19:03:04.454Z,5.27
2018-03-20T19:05:32.789Z,5.37
2018-03-20T19:08:01.861Z,4.67
2018-03-20T19:10:30.953Z,4.37
2018-03-20T19:13:00.044Z,4.30
2018-03-20T19:15:29.116Z,3.97
2018-03-20T19:18:11.464Z,5.50
2018-03-20T19:20:39.773Z,5.70
2018-03-20T19:23:08.098Z,7.10
2018-03-20T19:25:36.439Z,5.50
2018-03-20T19:28:04.749Z,11.47
2018-03-20T19:30:33.847Z,9.27
2018-03-20T19:33:02.171Z,12.97
2018-03-20T19:35:30.505Z,13.07
2018-03-20T19:37:59.596Z,21.30
2018-03-20T19:40:27.911Z,12.60
2018-03-20T19:42:56.240Z,16.83
2018-03-20T19:45:24.588Z,5.63
2018-03-20T19:47:52.923Z,26.43
2018-03-20T19:50:22.020Z,20.80
2018-03-20T19:52:51.121Z,14.30
2018-03-20T19:55:19.532Z,8.43
2018-03-20T19:57:47.860Z,10.60
2018-03-20T20:00:16.937Z,12.63
2018-03-20T20:02:45.272Z,11.27
2018-03-20T20:05:13.630Z,10.40
2018-03-20T20:07:42.861Z,13.83
2018-03-20T20:10:11.189Z,10.67
2018-03-20T20:12:40.269Z,13.37
2018-03-20T20:15:08.625Z,12.00
2018-03-20T20:17:36.995Z,13.13
2018-03-20T20:20:05.320Z,8.40
2018-03-20T20:22:34.402Z,11.80
2018-03-20T20:25:02.733Z,14.63
2018-03-20T20:27:31.046Z,9.03
2018-03-20T20:29:59.404Z,9.30
2018-03-20T20:32:27.718Z,7.80
2018-03-20T20:34:56.041Z,6.87
2018-03-20T20:37:24.377Z,6.83
2018-03-20T20:39:52.773Z,8.67
2018-03-20T20:42:21.937Z,9.30
2018-03-20T20:44:50.263Z,9.40
2018-03-20T20:47:18.593Z,6.13
2018-03-20T20:49:46.893Z,5.87
2018-03-20T20:52:15.209Z,13.23
2018-03-20T20:54:43.502Z,4.47
2018-03-20T20:57:11.829Z,5.57
2018-03-20T20:59:40.906Z,5.20
2018-03-20T21:02:09.232Z,11.30
2018-03-20T21:04:37.542Z,5.00
2018-03-20T21:07:05.869Z,7.97
2018-03-20T21:09:34.945Z,5.30
2018-03-20T21:12:03.276Z,4.80
2018-03-20T21:14:31.581Z,10.30
2018-03-20T21:16:59.933Z,6.80
2018-03-20T21:19:28.245Z,5.60
2018-03-20T21:21:56.630Z,5.37
2018-03-20T21:24:24.918Z,4.43
2018-03-20T21:26:54.010Z,7.50
2018-03-20T21:29:23.081Z,5.43
2018-03-20T21:31:52.179Z,5.30
2018-03-20T21:34:20.487Z,7.27
2018-03-20T21:36:49.589Z,6.40
2018-03-20T21:39:18.665Z,7.70
2018-03-20T21:41:46.986Z,6.73
2018-03-20T21:44:15.306Z,6.67
2018-03-20T21:46:43.641Z,8.63
2018-03-20T21:49:11.949Z,8.50
2018-03-20T21:51:40.283Z,10.80
2018-03-20T21:54:08.704Z,8.00
2018-03-20T21:56:37.049Z,6.10
2018-03-20T21:59:05.347Z,7.10
2018-03-20T22:01:33.660Z,7.97
2018-03-20T22:04:01.990Z,6.40
2018-03-20T22:06:30.301Z,10.10
2018-03-20T22:08:58.628Z,9.00
2018-03-20T22:11:26.936Z,6.50
2018-03-20T22:13:55.261Z,11.07
2018-03-20T22:16:23.597Z,9.77
2018-03-20T22:18:52.690Z,9.53
2018-03-20T22:21:21.008Z,24.03
2018-03-20T22:23:50.115Z,8.93
2018-03-20T22:26:19.200Z,8.00
2018-03-20T22:28:47.541Z,14.80
2018-03-20T22:31:15.853Z,9.37
2018-03-20T22:33:44.177Z,12.70
2018-03-20T22:36:12.485Z,10.47
2018-03-20T22:38:40.828Z,10.13
2018-03-20T22:41:09.141Z,12.20
2018-03-20T22:43:37.465Z,9.07
2018-03-20T22:46:06.540Z,13.07
2018-03-20T22:48:35.645Z,10.77
2018-03-20T22:51:04.724Z,9.50
2018-03-20T22:53:33.053Z,9.20
2018-03-20T22:56:01.373Z,16.90
2018-03-20T22:58:29.701Z,12.20
2018-03-20T23:00:58.009Z,10.60
2018-03-20T23:03:26.346Z,9.13
2018-03-20T23:05:54.715Z,6.80
2018-03-20T23:08:23.065Z,9.13
2018-03-20T23:10:51.372Z,13.97
2018-03-20T23:13:20.469Z,11.13
2018-03-20T23:15:48.781Z,6.73
2018-03-20T23:18:17.107Z,6.80
2018-03-20T23:20:46.227Z,12.70
2018-03-20T23:23:14.533Z,13.40
2018-03-20T23:25:42.860Z,8.83
2018-03-20T23:28:11.934Z,7.70
2018-03-20T23:30:40.281Z,10.17
2018-03-20T23:33:08.598Z,9.23
2018-03-20T23:35:36.938Z,11.57
2018-03-20T23:38:05.246Z,10.77
2018-03-20T23:40:33.581Z,8.40
2018-03-20T23:43:01.880Z,9.20
2018-03-20T23:45:30.213Z,8.20
2018-03-20T23:47:59.287Z,9.40
